sensor_id;sensor_type;location;lat;lon;timestamp;P1;durP1;ratioP1;P2;durP2;ratioP2
41446;SDS011;27185;52.040;4.490;2023-03-01T00:01:09;19.27;;;11.30;;
41446;SDS011;27185;52.040;4.490;2023-03-01T00:03:57;17.02;;;11.35;;
41446;SDS011;27185;52.040;4.490;2023-03-01T00:06:43;16.42;;;11.35;;
41446;SDS011;27185;52.040;4.490;2023-03-01T00:09:32;20.38;;;11.35;;
41446;SDS011;27185;52.040;4.490;2023-03-01T00:12:17;15.77;;;10.60;;
41446;SDS011;27185;52.040;4.490;2023-03-01T00:15:03;19.73;;;12.25;;
41446;SDS011;27185;52.040;4.490;2023-03-01T00:17:49;19.02;;;11.57;;
41446;SDS011;27185;52.040;4.490;2023-03-01T00:20:35;17.20;;;11.70;;
41446;SDS011;27185;52.040;4.490;2023-03-01T00:23:21;17.60;;;11.50;;
41446;SDS011;27185;52.040;4.490;2023-03-01T00:26:08;22.05;;;12.18;;
41446;SDS011;27185;52.040;4.490;2023-03-01T00:28:56;20.13;;;11.82;;
41446;SDS011;27185;52.040;4.490;2023-03-01T00:31:42;16.85;;;11.50;;
41446;SDS011;27185;52.040;4.490;2023-03-01T00:34:28;17.33;;;11.00;;
41446;SDS011;27185;52.040;4.490;2023-03-01T00:37:14;18.33;;;11.23;;
41446;SDS011;27185;52.040;4.490;2023-03-01T00:39:59;17.83;;;11.35;;
41446;SDS011;27185;52.040;4.490;2023-03-01T00:42:45;18.38;;;10.80;;
41446;SDS011;27185;52.040;4.490;2023-03-01T00:45:30;16.45;;;11.30;;
41446;SDS011;27185;52.040;4.490;2023-03-01T00:48:17;17.23;;;12.18;;
41446;SDS011;27185;52.040;4.490;2023-03-01T00:51:14;21.67;;;12.23;;
41446;SDS011;27185;52.040;4.490;2023-03-01T00:54:05;18.30;;;11.32;;
41446;SDS011;27185;52.040;4.490;2023-03-01T00:56:50;18.27;;;12.88;;
41446;SDS011;27185;52.040;4.490;2023-03-01T00:59:36;18.42;;;12.18;;
41446;SDS011;27185;52.040;4.490;2023-03-01T01:02:22;19.60;;;11.73;;
41446;SDS011;27185;52.040;4.490;2023-03-01T01:05:08;16.67;;;12.32;;
41446;SDS011;27185;52.040;4.490;2023-03-01T01:07:53;17.35;;;11.45;;
41446;SDS011;27185;52.040;4.490;2023-03-01T01:10:39;18.80;;;13.10;;
41446;SDS011;27185;52.040;4.490;2023-03-01T01:13:24;22.08;;;13.82;;
41446;SDS011;27185;52.040;4.490;2023-03-01T01:16:10;22.67;;;14.00;;
41446;SDS011;27185;52.040;4.490;2023-03-01T01:18:56;18.85;;;13.35;;
41446;SDS011;27185;52.040;4.490;2023-03-01T01:21:42;18.75;;;12.27;;
41446;SDS011;27185;52.040;4.490;2023-03-01T01:24:28;20.30;;;13.23;;
41446;SDS011;27185;52.040;4.490;2023-03-01T01:27:13;22.65;;;13.50;;
41446;SDS011;27185;52.040;4.490;2023-03-01T01:29:59;20.45;;;13.18;;
41446;SDS011;27185;52.040;4.490;2023-03-01T01:32:45;27.30;;;14.60;;
41446;SDS011;27185;52.040;4.490;2023-03-01T01:35:30;23.25;;;14.65;;
41446;SDS011;27185;52.040;4.490;2023-03-01T01:38:16;21.88;;;14.13;;
41446;SDS011;27185;52.040;4.490;2023-03-01T01:41:02;23.08;;;14.23;;
41446;SDS011;27185;52.040;4.490;2023-03-01T01:44:11;26.85;;;15.20;;
41446;SDS011;27185;52.040;4.490;2023-03-01T01:47:00;23.45;;;14.45;;
41446;SDS011;27185;52.040;4.490;2023-03-01T01:49:50;25.30;;;14.35;;
41446;SDS011;27185;52.040;4.490;2023-03-01T01:52:39;24.98;;;15.50;;
41446;SDS011;27185;52.040;4.490;2023-03-01T01:55:25;25.83;;;15.52;;
41446;SDS011;27185;52.040;4.490;2023-03-01T01:58:13;26.95;;;15.50;;
41446;SDS011;27185;52.040;4.490;2023-03-01T02:01:03;22.73;;;14.50;;
41446;SDS011;27185;52.040;4.490;2023-03-01T02:03:49;21.20;;;14.57;;
41446;SDS011;27185;52.040;4.490;2023-03-01T02:06:36;29.75;;;15.98;;
41446;SDS011;27185;52.040;4.490;2023-03-01T02:09:26;27.30;;;16.23;;
41446;SDS011;27185;52.040;4.490;2023-03-01T02:12:16;31.55;;;16.45;;
41446;SDS011;27185;52.040;4.490;2023-03-01T02:15:04;25.55;;;15.55;;
41446;SDS011;27185;52.040;4.490;2023-03-01T02:17:50;24.38;;;15.20;;
41446;SDS011;27185;52.040;4.490;2023-03-01T02:23:35;26.35;;;16.55;;
41446;SDS011;27185;52.040;4.490;2023-03-01T02:26:33;24.60;;;15.20;;
41446;SDS011;27185;52.040;4.490;2023-03-01T02:29:26;27.80;;;15.98;;
41446;SDS011;27185;52.040;4.490;2023-03-01T02:32:13;26.23;;;14.80;;
41446;SDS011;27185;52.040;4.490;2023-03-01T02:35:00;26.42;;;17.08;;
41446;SDS011;27185;52.040;4.490;2023-03-01T02:37:46;27.63;;;16.35;;
41446;SDS011;27185;52.040;4.490;2023-03-01T02:40:33;28.20;;;17.23;;
41446;SDS011;27185;52.040;4.490;2023-03-01T02:43:20;27.67;;;16.67;;
41446;SDS011;27185;52.040;4.490;2023-03-01T02:46:22;26.98;;;17.23;;
41446;SDS011;27185;52.040;4.490;2023-03-01T02:49:19;32.97;;;17.23;;
41446;SDS011;27185;52.040;4.490;2023-03-01T02:55:20;31.58;;;17.67;;
41446;SDS011;27185;52.040;4.490;2023-03-01T02:58:06;30.23;;;18.33;;
41446;SDS011;27185;52.040;4.490;2023-03-01T03:00:52;28.75;;;18.45;;
41446;SDS011;27185;52.040;4.490;2023-03-01T03:03:37;33.38;;;19.77;;
41446;SDS011;27185;52.040;4.490;2023-03-01T03:06:23;30.92;;;18.48;;
41446;SDS011;27185;52.040;4.490;2023-03-01T03:09:09;38.88;;;19.67;;
41446;SDS011;27185;52.040;4.490;2023-03-01T03:11:55;36.90;;;19.13;;
41446;SDS011;27185;52.040;4.490;2023-03-01T03:14:40;35.58;;;21.65;;
41446;SDS011;27185;52.040;4.490;2023-03-01T03:17:26;36.15;;;20.05;;
41446;SDS011;27185;52.040;4.490;2023-03-01T03:20:12;37.38;;;21.95;;
41446;SDS011;27185;52.040;4.490;2023-03-01T03:23:03;36.10;;;20.42;;
41446;SDS011;27185;52.040;4.490;2023-03-01T03:25:49;39.88;;;20.40;;
41446;SDS011;27185;52.040;4.490;2023-03-01T03:28:35;34.25;;;20.58;;
41446;SDS011;27185;52.040;4.490;2023-03-01T03:31:24;38.63;;;21.90;;
41446;SDS011;27185;52.040;4.490;2023-03-01T03:34:11;37.17;;;22.63;;
41446;SDS011;27185;52.040;4.490;2023-03-01T03:37:02;34.22;;;21.00;;
41446;SDS011;27185;52.040;4.490;2023-03-01T03:39:48;35.25;;;21.55;;
41446;SDS011;27185;52.040;4.490;2023-03-01T03:42:33;33.97;;;21.42;;
41446;SDS011;27185;52.040;4.490;2023-03-01T03:45:19;36.70;;;21.42;;
41446;SDS011;27185;52.040;4.490;2023-03-01T03:48:06;40.58;;;21.90;;
41446;SDS011;27185;52.040;4.490;2023-03-01T03:50:54;39.60;;;21.85;;
41446;SDS011;27185;52.040;4.490;2023-03-01T03:53:41;47.38;;;23.23;;
41446;SDS011;27185;52.040;4.490;2023-03-01T03:56:27;39.05;;;20.95;;
41446;SDS011;27185;52.040;4.490;2023-03-01T03:59:13;54.10;;;23.65;;
41446;SDS011;27185;52.040;4.490;2023-03-01T04:01:58;49.35;;;22.95;;
41446;SDS011;27185;52.040;4.490;2023-03-01T04:04:44;41.50;;;20.60;;
41446;SDS011;27185;52.040;4.490;2023-03-01T04:07:29;55.35;;;22.35;;
41446;SDS011;27185;52.040;4.490;2023-03-01T04:10:16;39.33;;;21.63;;
41446;SDS011;27185;52.040;4.490;2023-03-01T04:13:03;42.97;;;20.40;;
41446;SDS011;27185;52.040;4.490;2023-03-01T04:15:50;55.72;;;22.58;;
41446;SDS011;27185;52.040;4.490;2023-03-01T04:18:36;46.88;;;20.70;;
41446;SDS011;27185;52.040;4.490;2023-03-01T04:21:22;50.17;;;22.33;;
41446;SDS011;27185;52.040;4.490;2023-03-01T04:24:07;52.22;;;19.75;;
41446;SDS011;27185;52.040;4.490;2023-03-01T04:26:54;67.80;;;19.98;;
41446;SDS011;27185;52.040;4.490;2023-03-01T04:29:40;53.65;;;22.00;;
41446;SDS011;27185;52.040;4.490;2023-03-01T04:32:25;68.82;;;21.25;;
41446;SDS011;27185;52.040;4.490;2023-03-01T04:35:11;91.50;;;22.15;;
41446;SDS011;27185;52.040;4.490;2023-03-01T04:37:56;56.63;;;20.70;;
41446;SDS011;27185;52.040;4.490;2023-03-01T04:40:42;72.88;;;19.58;;
41446;SDS011;27185;52.040;4.490;2023-03-01T04:43:28;56.38;;;19.30;;
41446;SDS011;27185;52.040;4.490;2023-03-01T04:46:15;50.45;;;19.45;;
41446;SDS011;27185;52.040;4.490;2023-03-01T04:49:02;79.70;;;23.42;;
41446;SDS011;27185;52.040;4.490;2023-03-01T04:51:48;51.42;;;21.15;;
41446;SDS011;27185;52.040;4.490;2023-03-01T04:54:34;54.42;;;21.27;;
41446;SDS011;27185;52.040;4.490;2023-03-01T04:57:20;49.53;;;19.27;;
41446;SDS011;27185;52.040;4.490;2023-03-01T05:00:06;43.38;;;17.50;;
41446;SDS011;27185;52.040;4.490;2023-03-01T05:03:04;65.80;;;19.83;;
41446;SDS011;27185;52.040;4.490;2023-03-01T05:05:51;31.70;;;17.52;;
41446;SDS011;27185;52.040;4.490;2023-03-01T05:08:40;30.48;;;17.08;;
41446;SDS011;27185;52.040;4.490;2023-03-01T05:11:26;29.10;;;17.15;;
41446;SDS011;27185;52.040;4.490;2023-03-01T05:14:16;26.67;;;16.88;;
41446;SDS011;27185;52.040;4.490;2023-03-01T05:17:02;26.83;;;17.15;;
41446;SDS011;27185;52.040;4.490;2023-03-01T05:19:48;26.05;;;16.63;;
41446;SDS011;27185;52.040;4.490;2023-03-01T05:22:35;27.65;;;15.90;;
41446;SDS011;27185;52.040;4.490;2023-03-01T05:25:21;24.70;;;15.80;;
41446;SDS011;27185;52.040;4.490;2023-03-01T05:28:07;27.83;;;17.33;;
41446;SDS011;27185;52.040;4.490;2023-03-01T05:30:58;26.17;;;16.88;;
41446;SDS011;27185;52.040;4.490;2023-03-01T05:33:44;26.92;;;17.25;;
41446;SDS011;27185;52.040;4.490;2023-03-01T05:36:30;26.67;;;16.75;;
41446;SDS011;27185;52.040;4.490;2023-03-01T05:39:15;25.35;;;16.45;;
41446;SDS011;27185;52.040;4.490;2023-03-01T05:42:01;28.02;;;16.88;;
41446;SDS011;27185;52.040;4.490;2023-03-01T05:44:47;23.90;;;15.65;;
41446;SDS011;27185;52.040;4.490;2023-03-01T05:47:32;29.17;;;17.25;;
41446;SDS011;27185;52.040;4.490;2023-03-01T05:50:19;24.35;;;16.48;;
41446;SDS011;27185;52.040;4.490;2023-03-01T05:53:09;28.75;;;16.58;;
41446;SDS011;27185;52.040;4.490;2023-03-01T05:55:56;28.92;;;17.13;;
41446;SDS011;27185;52.040;4.490;2023-03-01T05:58:42;29.77;;;18.15;;
41446;SDS011;27185;52.040;4.490;2023-03-01T06:01:28;31.85;;;18.80;;
41446;SDS011;27185;52.040;4.490;2023-03-01T06:04:14;28.88;;;17.98;;
41446;SDS011;27185;52.040;4.490;2023-03-01T06:06:59;32.28;;;17.52;;
41446;SDS011;27185;52.040;4.490;2023-03-01T06:09:45;27.50;;;17.02;;
41446;SDS011;27185;52.040;4.490;2023-03-01T06:12:34;27.33;;;17.25;;
41446;SDS011;27185;52.040;4.490;2023-03-01T06:15:21;29.10;;;17.85;;
41446;SDS011;27185;52.040;4.490;2023-03-01T06:18:08;28.98;;;18.85;;
41446;SDS011;27185;52.040;4.490;2023-03-01T06:20:54;34.28;;;20.92;;
41446;SDS011;27185;52.040;4.490;2023-03-01T06:23:40;34.58;;;20.80;;
41446;SDS011;27185;52.040;4.490;2023-03-01T06:26:26;31.95;;;18.98;;
41446;SDS011;27185;52.040;4.490;2023-03-01T06:29:11;33.15;;;19.92;;
41446;SDS011;27185;52.040;4.490;2023-03-01T06:31:57;35.45;;;19.17;;
41446;SDS011;27185;52.040;4.490;2023-03-01T06:34:43;32.33;;;19.60;;
41446;SDS011;27185;52.040;4.490;2023-03-01T06:37:28;36.22;;;22.70;;
41446;SDS011;27185;52.040;4.490;2023-03-01T06:40:14;35.65;;;20.17;;
41446;SDS011;27185;52.040;4.490;2023-03-01T06:43:00;25.90;;;16.80;;
41446;SDS011;27185;52.040;4.490;2023-03-01T06:45:46;30.88;;;18.55;;
41446;SDS011;27185;52.040;4.490;2023-03-01T06:48:32;28.80;;;16.90;;
41446;SDS011;27185;52.040;4.490;2023-03-01T06:51:18;28.27;;;15.98;;
41446;SDS011;27185;52.040;4.490;2023-03-01T06:54:04;30.08;;;17.08;;
41446;SDS011;27185;52.040;4.490;2023-03-01T06:56:50;29.00;;;17.38;;
41446;SDS011;27185;52.040;4.490;2023-03-01T06:59:35;26.10;;;17.05;;
41446;SDS011;27185;52.040;4.490;2023-03-01T07:02:21;28.95;;;17.55;;
41446;SDS011;27185;52.040;4.490;2023-03-01T07:05:07;27.60;;;17.23;;
41446;SDS011;27185;52.040;4.490;2023-03-01T07:07:53;28.35;;;18.23;;
41446;SDS011;27185;52.040;4.490;2023-03-01T07:10:40;27.13;;;17.10;;
41446;SDS011;27185;52.040;4.490;2023-03-01T07:13:25;27.52;;;17.67;;
41446;SDS011;27185;52.040;4.490;2023-03-01T07:16:11;32.50;;;19.33;;
41446;SDS011;27185;52.040;4.490;2023-03-01T07:18:57;26.45;;;17.63;;
41446;SDS011;27185;52.040;4.490;2023-03-01T07:21:42;29.05;;;17.77;;
41446;SDS011;27185;52.040;4.490;2023-03-01T07:24:28;27.65;;;17.27;;
41446;SDS011;27185;52.040;4.490;2023-03-01T07:27:14;29.80;;;17.65;;
41446;SDS011;27185;52.040;4.490;2023-03-01T07:29:59;30.33;;;19.02;;
41446;SDS011;27185;52.040;4.490;2023-03-01T07:32:45;35.15;;;21.40;;
41446;SDS011;27185;52.040;4.490;2023-03-01T07:35:31;41.50;;;24.10;;
41446;SDS011;27185;52.040;4.490;2023-03-01T07:38:18;40.55;;;23.65;;
41446;SDS011;27185;52.040;4.490;2023-03-01T07:41:03;38.22;;;22.52;;
41446;SDS011;27185;52.040;4.490;2023-03-01T07:43:50;36.80;;;21.48;;
41446;SDS011;27185;52.040;4.490;2023-03-01T07:46:36;33.58;;;20.00;;
41446;SDS011;27185;52.040;4.490;2023-03-01T07:49:21;34.20;;;20.48;;
41446;SDS011;27185;52.040;4.490;2023-03-01T07:52:09;40.70;;;24.85;;
41446;SDS011;27185;52.040;4.490;2023-03-01T07:54:56;35.13;;;20.73;;
41446;SDS011;27185;52.040;4.490;2023-03-01T07:57:42;38.55;;;20.17;;
41446;SDS011;27185;52.040;4.490;2023-03-01T08:00:27;31.20;;;19.63;;
41446;SDS011;27185;52.040;4.490;2023-03-01T08:03:13;32.25;;;20.02;;
41446;SDS011;27185;52.040;4.490;2023-03-01T08:05:59;31.85;;;19.50;;
41446;SDS011;27185;52.040;4.490;2023-03-01T08:08:45;27.77;;;18.63;;
41446;SDS011;27185;52.040;4.490;2023-03-01T08:11:31;33.92;;;20.10;;
41446;SDS011;27185;52.040;4.490;2023-03-01T08:14:17;36.97;;;23.73;;
41446;SDS011;27185;52.040;4.490;2023-03-01T08:17:02;36.92;;;22.80;;
41446;SDS011;27185;52.040;4.490;2023-03-01T08:19:48;35.55;;;22.92;;
41446;SDS011;27185;52.040;4.490;2023-03-01T08:22:34;35.05;;;22.80;;
41446;SDS011;27185;52.040;4.490;2023-03-01T08:25:19;36.42;;;23.05;;
41446;SDS011;27185;52.040;4.490;2023-03-01T08:28:05;33.58;;;20.67;;
41446;SDS011;27185;52.040;4.490;2023-03-01T08:30:51;28.58;;;19.38;;
41446;SDS011;27185;52.040;4.490;2023-03-01T08:33:36;29.83;;;19.77;;
41446;SDS011;27185;52.040;4.490;2023-03-01T08:36:26;26.27;;;17.55;;
41446;SDS011;27185;52.040;4.490;2023-03-01T08:39:18;30.60;;;18.65;;
41446;SDS011;27185;52.040;4.490;2023-03-01T08:42:04;27.55;;;18.27;;
41446;SDS011;27185;52.040;4.490;2023-03-01T08:44:50;27.60;;;18.20;;
41446;SDS011;27185;52.040;4.490;2023-03-01T08:47:36;35.15;;;19.40;;
41446;SDS011;27185;52.040;4.490;2023-03-01T08:50:22;28.10;;;17.45;;
41446;SDS011;27185;52.040;4.490;2023-03-01T08:53:09;22.98;;;15.63;;
41446;SDS011;27185;52.040;4.490;2023-03-01T08:55:54;24.67;;;15.95;;
41446;SDS011;27185;52.040;4.490;2023-03-01T08:58:43;28.05;;;17.55;;
41446;SDS011;27185;52.040;4.490;2023-03-01T09:01:32;21.90;;;15.68;;
41446;SDS011;27185;52.040;4.490;2023-03-01T09:04:17;22.80;;;14.57;;
41446;SDS011;27185;52.040;4.490;2023-03-01T09:07:03;22.48;;;14.05;;
41446;SDS011;27185;52.040;4.490;2023-03-01T09:09:49;22.15;;;14.13;;
41446;SDS011;27185;52.040;4.490;2023-03-01T09:12:38;21.73;;;13.88;;
41446;SDS011;27185;52.040;4.490;2023-03-01T09:15:23;23.48;;;15.15;;
41446;SDS011;27185;52.040;4.490;2023-03-01T09:18:09;22.60;;;12.95;;
41446;SDS011;27185;52.040;4.490;2023-03-01T09:21:02;21.35;;;12.80;;
41446;SDS011;27185;52.040;4.490;2023-03-01T09:23:53;17.10;;;11.40;;
41446;SDS011;27185;52.040;4.490;2023-03-01T09:26:41;20.02;;;12.57;;
41446;SDS011;27185;52.040;4.490;2023-03-01T09:29:27;18.63;;;12.55;;
41446;SDS011;27185;52.040;4.490;2023-03-01T09:32:13;25.52;;;14.32;;
41446;SDS011;27185;52.040;4.490;2023-03-01T09:34:58;19.52;;;13.27;;
41446;SDS011;27185;52.040;4.490;2023-03-01T09:37:49;20.33;;;13.07;;
41446;SDS011;27185;52.040;4.490;2023-03-01T09:40:36;21.15;;;13.00;;
41446;SDS011;27185;52.040;4.490;2023-03-01T09:46:32;21.33;;;12.23;;
41446;SDS011;27185;52.040;4.490;2023-03-01T09:49:26;19.10;;;11.73;;
41446;SDS011;27185;52.040;4.490;2023-03-01T09:55:26;17.30;;;10.55;;
41446;SDS011;27185;52.040;4.490;2023-03-01T10:01:35;16.58;;;9.27;;
41446;SDS011;27185;52.040;4.490;2023-03-01T10:10:27;13.10;;;9.90;;
41446;SDS011;27185;52.040;4.490;2023-03-01T10:13:18;11.85;;;8.38;;
41446;SDS011;27185;52.040;4.490;2023-03-01T10:16:13;12.25;;;8.50;;
41446;SDS011;27185;52.040;4.490;2023-03-01T10:19:03;13.43;;;8.30;;
41446;SDS011;27185;52.040;4.490;2023-03-01T10:24:37;13.25;;;7.80;;
41446;SDS011;27185;52.040;4.490;2023-03-01T10:30:37;12.43;;;6.85;;
41446;SDS011;27185;52.040;4.490;2023-03-01T10:33:29;10.02;;;6.57;;
41446;SDS011;27185;52.040;4.490;2023-03-01T10:36:22;12.23;;;7.35;;
41446;SDS011;27185;52.040;4.490;2023-03-01T10:39:13;14.27;;;7.80;;
41446;SDS011;27185;52.040;4.490;2023-03-01T10:42:02;12.40;;;7.53;;
41446;SDS011;27185;52.040;4.490;2023-03-01T10:44:50;11.38;;;7.10;;
41446;SDS011;27185;52.040;4.490;2023-03-01T10:47:36;10.45;;;8.00;;
41446;SDS011;27185;52.040;4.490;2023-03-01T10:50:22;9.18;;;7.03;;
41446;SDS011;27185;52.040;4.490;2023-03-01T10:53:28;10.73;;;7.90;;
41446;SDS011;27185;52.040;4.490;2023-03-01T10:56:15;16.45;;;8.85;;
41446;SDS011;27185;52.040;4.490;2023-03-01T10:59:04;10.35;;;6.43;;
41446;SDS011;27185;52.040;4.490;2023-03-01T11:08:00;10.07;;;6.53;;
41446;SDS011;27185;52.040;4.490;2023-03-01T11:13:33;15.23;;;8.35;;
41446;SDS011;27185;52.040;4.490;2023-03-01T11:16:28;11.05;;;7.43;;
41446;SDS011;27185;52.040;4.490;2023-03-01T11:19:18;13.35;;;7.82;;
41446;SDS011;27185;52.040;4.490;2023-03-01T11:22:13;11.90;;;9.02;;
41446;SDS011;27185;52.040;4.490;2023-03-01T11:25:04;13.48;;;8.52;;
41446;SDS011;27185;52.040;4.490;2023-03-01T11:27:56;12.15;;;8.02;;
41446;SDS011;27185;52.040;4.490;2023-03-01T11:33:46;12.60;;;8.40;;
41446;SDS011;27185;52.040;4.490;2023-03-01T11:36:35;12.52;;;8.32;;
41446;SDS011;27185;52.040;4.490;2023-03-01T11:39:53;10.95;;;7.82;;
41446;SDS011;27185;52.040;4.490;2023-03-01T11:52:42;15.68;;;9.50;;
41446;SDS011;27185;52.040;4.490;2023-03-01T12:07:58;12.73;;;9.73;;
41446;SDS011;27185;52.040;4.490;2023-03-01T12:29:24;16.73;;;9.50;;
41446;SDS011;27185;52.040;4.490;2023-03-01T12:32:34;13.85;;;9.20;;
41446;SDS011;27185;52.040;4.490;2023-03-01T12:36:28;13.93;;;9.80;;
41446;SDS011;27185;52.040;4.490;2023-03-01T12:39:08;16.38;;;11.27;;
41446;SDS011;27185;52.040;4.490;2023-03-01T12:45:23;10.82;;;8.45;;
41446;SDS011;27185;52.040;4.490;2023-03-01T12:48:21;14.93;;;9.38;;
41446;SDS011;27185;52.040;4.490;2023-03-01T12:51:11;14.20;;;10.80;;
41446;SDS011;27185;52.040;4.490;2023-03-01T12:54:02;12.48;;;9.75;;
41446;SDS011;27185;52.040;4.490;2023-03-01T12:57:02;10.18;;;7.60;;
41446;SDS011;27185;52.040;4.490;2023-03-01T13:00:03;11.23;;;6.30;;
41446;SDS011;27185;52.040;4.490;2023-03-01T13:03:25;9.32;;;6.45;;
41446;SDS011;27185;52.040;4.490;2023-03-01T13:15:30;12.05;;;6.97;;
41446;SDS011;27185;52.040;4.490;2023-03-01T13:21:10;7.60;;;6.07;;
41446;SDS011;27185;52.040;4.490;2023-03-01T13:23:55;7.55;;;5.15;;
41446;SDS011;27185;52.040;4.490;2023-03-01T13:27:08;5.20;;;4.20;;
41446;SDS011;27185;52.040;4.490;2023-03-01T13:29:54;6.55;;;4.53;;
41446;SDS011;27185;52.040;4.490;2023-03-01T13:44:36;6.10;;;4.72;;
41446;SDS011;27185;52.040;4.490;2023-03-01T13:47:23;7.88;;;5.03;;
41446;SDS011;27185;52.040;4.490;2023-03-01T13:50:16;6.10;;;4.78;;
41446;SDS011;27185;52.040;4.490;2023-03-01T13:53:06;6.65;;;4.53;;
41446;SDS011;27185;52.040;4.490;2023-03-01T13:55:55;6.53;;;4.28;;
41446;SDS011;27185;52.040;4.490;2023-03-01T13:58:49;6.93;;;4.50;;
41446;SDS011;27185;52.040;4.490;2023-03-01T14:01:40;10.45;;;5.15;;
41446;SDS011;27185;52.040;4.490;2023-03-01T14:04:31;6.57;;;4.70;;
41446;SDS011;27185;52.040;4.490;2023-03-01T14:07:21;5.38;;;4.13;;
41446;SDS011;27185;52.040;4.490;2023-03-01T14:10:14;6.28;;;3.53;;
41446;SDS011;27185;52.040;4.490;2023-03-01T14:19:21;6.93;;;4.65;;
41446;SDS011;27185;52.040;4.490;2023-03-01T14:22:21;6.05;;;3.97;;
41446;SDS011;27185;52.040;4.490;2023-03-01T14:25:17;6.18;;;4.32;;
41446;SDS011;27185;52.040;4.490;2023-03-01T14:28:18;6.90;;;4.55;;
41446;SDS011;27185;52.040;4.490;2023-03-01T14:34:28;8.88;;;4.93;;
41446;SDS011;27185;52.040;4.490;2023-03-01T14:40:19;7.57;;;4.85;;
41446;SDS011;27185;52.040;4.490;2023-03-01T14:43:09;7.18;;;5.65;;
41446;SDS011;27185;52.040;4.490;2023-03-01T14:48:42;8.75;;;5.20;;
41446;SDS011;27185;52.040;4.490;2023-03-01T14:51:28;8.73;;;5.88;;
41446;SDS011;27185;52.040;4.490;2023-03-01T14:54:23;7.55;;;4.90;;
41446;SDS011;27185;52.040;4.490;2023-03-01T14:57:13;7.28;;;4.90;;
41446;SDS011;27185;52.040;4.490;2023-03-01T15:00:02;5.80;;;4.55;;
41446;SDS011;27185;52.040;4.490;2023-03-01T15:02:52;5.53;;;4.00;;
41446;SDS011;27185;52.040;4.490;2023-03-01T15:05:39;5.47;;;4.07;;
41446;SDS011;27185;52.040;4.490;2023-03-01T15:08:26;6.13;;;3.95;;
41446;SDS011;27185;52.040;4.490;2023-03-01T15:11:22;5.80;;;3.90;;
41446;SDS011;27185;52.040;4.490;2023-03-01T15:20:16;8.35;;;3.78;;
41446;SDS011;27185;52.040;4.490;2023-03-01T15:23:05;6.97;;;3.92;;
41446;SDS011;27185;52.040;4.490;2023-03-01T15:26:01;5.82;;;4.40;;
41446;SDS011;27185;52.040;4.490;2023-03-01T15:28:49;5.93;;;4.20;;
41446;SDS011;27185;52.040;4.490;2023-03-01T15:31:37;9.60;;;4.65;;
41446;SDS011;27185;52.040;4.490;2023-03-01T15:37:40;5.07;;;3.83;;
41446;SDS011;27185;52.040;4.490;2023-03-01T15:40:32;6.63;;;4.40;;
41446;SDS011;27185;52.040;4.490;2023-03-01T15:43:41;7.85;;;4.20;;
41446;SDS011;27185;52.040;4.490;2023-03-01T15:46:32;6.13;;;3.53;;
41446;SDS011;27185;52.040;4.490;2023-03-01T15:49:34;7.63;;;3.53;;
41446;SDS011;27185;52.040;4.490;2023-03-01T15:55:15;6.15;;;4.03;;
41446;SDS011;27185;52.040;4.490;2023-03-01T15:58:08;7.63;;;4.00;;
41446;SDS011;27185;52.040;4.490;2023-03-01T16:00:57;5.80;;;3.80;;
41446;SDS011;27185;52.040;4.490;2023-03-01T16:03:44;7.60;;;4.05;;
41446;SDS011;27185;52.040;4.490;2023-03-01T16:06:30;5.88;;;3.95;;
41446;SDS011;27185;52.040;4.490;2023-03-01T16:09:15;6.72;;;4.25;;
41446;SDS011;27185;52.040;4.490;2023-03-01T16:12:01;4.93;;;3.30;;
41446;SDS011;27185;52.040;4.490;2023-03-01T16:14:46;6.28;;;4.05;;
41446;SDS011;27185;52.040;4.490;2023-03-01T16:17:33;6.03;;;3.83;;
41446;SDS011;27185;52.040;4.490;2023-03-01T16:20:19;7.60;;;4.10;;
41446;SDS011;27185;52.040;4.490;2023-03-01T16:23:06;7.65;;;4.50;;
41446;SDS011;27185;52.040;4.490;2023-03-01T16:25:53;8.95;;;5.22;;
41446;SDS011;27185;52.040;4.490;2023-03-01T16:28:41;7.30;;;4.30;;
41446;SDS011;27185;52.040;4.490;2023-03-01T16:31:28;6.97;;;4.68;;
41446;SDS011;27185;52.040;4.490;2023-03-01T16:34:13;9.95;;;5.15;;
41446;SDS011;27185;52.040;4.490;2023-03-01T16:36:59;7.57;;;5.03;;
41446;SDS011;27185;52.040;4.490;2023-03-01T16:39:45;7.18;;;4.20;;
41446;SDS011;27185;52.040;4.490;2023-03-01T16:42:34;7.68;;;4.20;;
41446;SDS011;27185;52.040;4.490;2023-03-01T16:45:20;7.38;;;4.65;;
41446;SDS011;27185;52.040;4.490;2023-03-01T16:48:06;8.57;;;4.90;;
41446;SDS011;27185;52.040;4.490;2023-03-01T16:50:55;8.15;;;5.07;;
41446;SDS011;27185;52.040;4.490;2023-03-01T16:53:43;9.20;;;5.35;;
41446;SDS011;27185;52.040;4.490;2023-03-01T16:56:28;8.23;;;4.57;;
41446;SDS011;27185;52.040;4.490;2023-03-01T16:59:14;8.88;;;4.80;;
41446;SDS011;27185;52.040;4.490;2023-03-01T17:02:00;8.88;;;5.20;;
41446;SDS011;27185;52.040;4.490;2023-03-01T17:04:52;7.75;;;4.38;;
41446;SDS011;27185;52.040;4.490;2023-03-01T17:07:39;8.13;;;4.53;;
41446;SDS011;27185;52.040;4.490;2023-03-01T17:10:24;7.18;;;4.22;;
41446;SDS011;27185;52.040;4.490;2023-03-01T17:13:10;7.30;;;4.82;;
41446;SDS011;27185;52.040;4.490;2023-03-01T17:15:56;8.55;;;5.82;;
41446;SDS011;27185;52.040;4.490;2023-03-01T17:18:42;9.32;;;4.80;;
41446;SDS011;27185;52.040;4.490;2023-03-01T17:21:28;8.80;;;5.38;;
41446;SDS011;27185;52.040;4.490;2023-03-01T17:24:13;9.73;;;5.22;;
41446;SDS011;27185;52.040;4.490;2023-03-01T17:26:59;7.53;;;4.63;;
41446;SDS011;27185;52.040;4.490;2023-03-01T17:29:44;10.52;;;5.43;;
41446;SDS011;27185;52.040;4.490;2023-03-01T17:32:30;8.55;;;3.97;;
41446;SDS011;27185;52.040;4.490;2023-03-01T17:35:16;8.40;;;5.18;;
41446;SDS011;27185;52.040;4.490;2023-03-01T17:38:02;12.35;;;6.32;;
41446;SDS011;27185;52.040;4.490;2023-03-01T17:40:48;12.98;;;7.53;;
41446;SDS011;27185;52.040;4.490;2023-03-01T17:43:34;11.20;;;6.10;;
41446;SDS011;27185;52.040;4.490;2023-03-01T17:46:19;10.77;;;5.93;;
41446;SDS011;27185;52.040;4.490;2023-03-01T17:49:06;9.80;;;5.40;;
41446;SDS011;27185;52.040;4.490;2023-03-01T17:51:51;8.60;;;5.10;;
41446;SDS011;27185;52.040;4.490;2023-03-01T17:54:37;12.38;;;5.50;;
41446;SDS011;27185;52.040;4.490;2023-03-01T17:57:22;11.93;;;5.88;;
41446;SDS011;27185;52.040;4.490;2023-03-01T18:00:09;10.88;;;5.93;;
41446;SDS011;27185;52.040;4.490;2023-03-01T18:02:56;8.52;;;5.57;;
41446;SDS011;27185;52.040;4.490;2023-03-01T18:05:42;10.35;;;5.43;;
41446;SDS011;27185;52.040;4.490;2023-03-01T18:08:28;11.23;;;5.97;;
41446;SDS011;27185;52.040;4.490;2023-03-01T18:11:13;9.63;;;5.28;;
41446;SDS011;27185;52.040;4.490;2023-03-01T18:13:59;11.82;;;6.53;;
41446;SDS011;27185;52.040;4.490;2023-03-01T18:16:45;10.30;;;6.57;;
41446;SDS011;27185;52.040;4.490;2023-03-01T18:19:31;19.70;;;11.93;;
41446;SDS011;27185;52.040;4.490;2023-03-01T18:22:16;15.02;;;10.50;;
41446;SDS011;27185;52.040;4.490;2023-03-01T18:25:02;15.00;;;8.27;;
41446;SDS011;27185;52.040;4.490;2023-03-01T18:27:49;14.65;;;8.80;;
41446;SDS011;27185;52.040;4.490;2023-03-01T18:30:34;9.98;;;6.40;;
41446;SDS011;27185;52.040;4.490;2023-03-01T18:33:20;10.73;;;6.53;;
41446;SDS011;27185;52.040;4.490;2023-03-01T18:36:12;10.48;;;6.07;;
41446;SDS011;27185;52.040;4.490;2023-03-01T18:41:50;7.60;;;5.05;;
41446;SDS011;27185;52.040;4.490;2023-03-01T18:44:36;10.10;;;5.65;;
41446;SDS011;27185;52.040;4.490;2023-03-01T18:47:22;13.13;;;6.07;;
41446;SDS011;27185;52.040;4.490;2023-03-01T18:50:08;12.90;;;6.82;;
41446;SDS011;27185;52.040;4.490;2023-03-01T18:52:54;14.82;;;8.60;;